Time,TemperatureF,DewpointF,PressureIn,WindDirection,WindDirectionDegrees,WindSpeedMPH,WindSpeedGustMPH,Humidity,HourlyPrecipIn,Conditions,Clouds,dailyrainin,SolarRadiationWatts/m^2,SoftwareType,DateUTC
2013-04-26 00:03:00,42.0,33.0,-100.00,ESE,113,0.0,0.0,70,0.00,,,0.00,0.000000,,2013-04-26 04:03:00,
2013-04-26 00:12:00,42.0,33.0,-100.00,ESE,113,0.0,0.0,70,0.00,,,0.00,0.000000,,2013-04-26 04:12:00,
2013-04-26 00:43:00,41.0,32.0,-100.00,ESE,112,0.0,0.0,71,0.00,,,0.00,0.000000,,2013-04-26 04:43:00,
2013-04-26 00:53:00,41.0,32.0,-100.00,ESE,112,0.0,0.0,71,0.00,,,0.00,0.000000,,2013-04-26 04:53:00,
2013-04-26 01:02:00,41.0,32.0,-100.00,ESE,112,0.0,0.0,71,0.00,,,0.00,0.000000,,2013-04-26 05:02:00,
2013-04-26 01:13:00,41.0,32.0,-100.00,ESE,112,0.0,0.0,71,0.00,,,0.00,0.000000,,2013-04-26 05:13:00,
2013-04-26 01:22:00,41.0,32.0,-100.00,ESE,112,0.0,0.0,71,0.00,,,0.00,0.000000,,2013-04-26 05:22:00,
2013-04-26 01:42:00,39.0,33.0,-100.00,ESE,108,0.0,0.0,80,0.00,,,0.00,0.000000,,2013-04-26 05:42:00,
2013-04-26 01:52:00,39.0,33.0,-100.00,ESE,108,0.0,0.0,80,0.00,,,0.00,0.000000,,2013-04-26 05:52:00,
2013-04-26 02:02:00,39.0,33.0,-100.00,ESE,108,0.0,0.0,80,0.00,,,0.00,0.000000,,2013-04-26 06:02:00,
2013-04-26 02:12:00,39.0,33.0,-100.00,ESE,108,0.0,0.0,80,0.00,,,0.00,0.000000,,2013-04-26 06:12:00,
2013-04-26 02:21:00,39.0,33.0,-100.00,ESE,108,0.0,0.0,80,0.00,,,0.00,0.000000,,2013-04-26 06:21:00,
2013-04-26 02:42:00,37.0,37.0,-100.00,East,101,0.0,0.0,100,0.00,,,0.00,0.000000,,2013-04-26 06:42:00,
2013-04-26 02:52:00,37.0,37.0,-100.00,East,101,0.0,0.0,100,0.00,,,0.00,0.000000,,2013-04-26 06:52:00,
2013-04-26 03:02:00,37.0,37.0,-100.00,East,101,0.0,0.0,100,0.00,,,0.00,0.000000,,2013-04-26 07:02:00,
2013-04-26 03:11:00,37.0,37.0,-100.00,East,101,0.0,0.0,100,0.00,,,0.00,0.000000,,2013-04-26 07:11:00,
2013-04-26 03:22:00,37.0,37.0,-100.00,East,101,0.0,0.0,100,0.00,,,0.00,0.000000,,2013-04-26 07:22:00,
2013-04-26 03:42:00,36.0,36.0,-100.00,ESE,104,0.0,0.0,100,0.00,,,0.00,0.000000,,2013-04-26 07:42:00,
2013-04-26 03:52:00,36.0,36.0,-100.00,ESE,104,0.0,0.0,100,0.00,,,0.00,0.000000,,2013-04-26 07:52:00,
2013-04-26 04:03:00,36.0,36.0,-100.00,ESE,104,0.0,0.0,100,0.00,,,0.00,0.000000,,2013-04-26 08:03:00,
2013-04-26 04:11:00,36.0,36.0,-100.00,ESE,104,0.0,0.0,100,0.00,,,0.00,0.000000,,2013-04-26 08:11:00,
2013-04-26 04:22:00,36.0,36.0,-100.00,ESE,104,0.0,0.0,100,0.00,,,0.00,0.000000,,2013-04-26 08:22:00,
2013-04-26 04:42:00,34.0,34.0,-100.00,ESE,105,0.0,0.0,100,0.00,,,-99.99,0.000000,,2013-04-26 08:42:00,
2013-04-26 04:52:00,34.0,34.0,-100.00,ESE,105,0.0,0.0,100,0.00,,,-99.99,0.000000,,2013-04-26 08:52:00,
2013-04-26 05:02:00,34.0,34.0,-100.00,ESE,105,0.0,0.0,100,0.00,,,-99.99,0.000000,,2013-04-26 09:02:00,
2013-04-26 05:12:00,34.0,34.0,-100.00,ESE,105,0.0,0.0,100,0.00,,,-99.99,0.000000,,2013-04-26 09:12:00,
2013-04-26 05:21:00,34.0,34.0,-100.00,ESE,105,0.0,0.0,100,0.00,,,-99.99,0.000000,,2013-04-26 09:21:00,
2013-04-26 05:23:00,33.0,33.0,-100.00,ESE,106,0.0,0.0,100,0.00,,,0.00,0.000000,,2013-04-26 09:23:00,
2013-04-26 05:43:00,33.0,33.0,-100.00,ESE,106,0.0,0.0,100,0.00,,,0.00,0.000000,,2013-04-26 09:43:00,
2013-04-26 05:53:00,33.0,33.0,-100.00,ESE,106,0.0,0.0,100,0.00,,,0.00,0.000000,,2013-04-26 09:53:00,
2013-04-26 06:03:00,33.0,33.0,-100.00,ESE,106,0.0,0.0,100,0.00,,,0.00,0.000000,,2013-04-26 10:03:00,
2013-04-26 06:12:00,33.0,33.0,-100.00,ESE,106,0.0,0.0,100,0.00,,,0.00,0.000000,,2013-04-26 10:12:00,
2013-04-26 06:42:00,32.0,32.0,-100.00,ESE,103,0.0,0.0,100,0.00,,,0.00,0.000000,,2013-04-26 10:42:00,
2013-04-26 06:52:00,32.0,32.0,-100.00,ESE,103,0.0,0.0,100,0.00,,,0.00,0.000000,,2013-04-26 10:52:00,
2013-04-26 07:02:00,32.0,32.0,-100.00,ESE,103,0.0,0.0,100,0.00,,,0.00,0.000000,,2013-04-26 11:02:00,
2013-04-26 07:11:00,32.0,32.0,-100.00,ESE,103,0.0,0.0,100,0.00,,,0.00,0.000000,,2013-04-26 11:11:00,
2013-04-26 07:22:00,32.0,32.0,-100.00,ESE,103,0.0,0.0,100,0.00,,,0.00,0.000000,,2013-04-26 11:22:00,
2013-04-26 07:42:00,32.0,32.0,-100.00,ESE,111,0.0,0.0,100,0.00,,,0.00,11.000000,,2013-04-26 11:42:00,
2013-04-26 07:52:00,32.0,32.0,-100.00,ESE,111,0.0,0.0,100,0.00,,,0.00,11.000000,,2013-04-26 11:52:00,
2013-04-26 08:02:00,32.0,32.0,-100.00,ESE,111,0.0,0.0,100,0.00,,,0.00,11.000000,,2013-04-26 12:02:00,
2013-04-26 08:11:00,32.0,32.0,-100.00,ESE,111,0.0,0.0,100,0.00,,,0.00,11.000000,,2013-04-26 12:11:00,
2013-04-26 08:21:00,32.0,32.0,-100.00,ESE,111,0.0,0.0,100,0.00,,,0.00,11.000000,,2013-04-26 12:21:00,
2013-04-26 08:42:00,37.0,37.0,-100.00,NE,50,0.0,0.0,100,0.00,,,0.00,78.000000,,2013-04-26 12:42:00,
2013-04-26 08:52:00,37.0,37.0,-100.00,NE,50,0.0,0.0,100,0.00,,,0.00,78.000000,,2013-04-26 12:52:00,
2013-04-26 09:01:00,37.0,37.0,-100.00,NE,50,0.0,0.0,100,0.00,,,0.00,78.000000,,2013-04-26 13:01:00,
2013-04-26 09:11:00,37.0,37.0,-100.00,NE,50,0.0,0.0,100,0.00,,,0.00,78.000000,,2013-04-26 13:11:00,
2013-04-26 09:22:00,37.0,37.0,-100.00,NE,50,0.0,0.0,100,0.00,,,0.00,78.000000,,2013-04-26 13:22:00,
2013-04-26 09:42:00,48.0,43.0,-100.00,ESE,115,2.0,6.0,83,0.00,,,0.00,307.000000,,2013-04-26 13:42:00,
2013-04-26 09:52:00,48.0,43.0,-100.00,ESE,115,2.0,6.0,83,0.00,,,0.00,307.000000,,2013-04-26 13:52:00,
2013-04-26 10:02:00,48.0,43.0,-100.00,ESE,115,2.0,6.0,83,0.00,,,0.00,307.000000,,2013-04-26 14:02:00,
2013-04-26 10:11:00,48.0,43.0,-100.00,ESE,115,2.0,6.0,83,0.00,,,0.00,307.000000,,2013-04-26 14:11:00,
2013-04-26 10:21:00,48.0,43.0,-100.00,ESE,115,2.0,6.0,83,0.00,,,0.00,307.000000,,2013-04-26 14:21:00,
2013-04-26 10:42:00,53.0,41.0,-100.00,East,101,3.0,11.0,63,0.00,,,0.00,487.000000,,2013-04-26 14:42:00,
2013-04-26 10:52:00,53.0,41.0,-100.00,East,101,3.0,11.0,63,0.00,,,0.00,487.000000,,2013-04-26 14:52:00,
2013-04-26 11:01:00,53.0,41.0,-100.00,East,101,3.0,11.0,63,0.00,,,0.00,487.000000,,2013-04-26 15:01:00,
2013-04-26 11:12:00,53.0,41.0,-100.00,East,101,3.0,11.0,63,0.00,,,0.00,487.000000,,2013-04-26 15:12:00,
2013-04-26 11:21:00,53.0,41.0,-100.00,East,101,3.0,11.0,63,0.00,,,0.00,487.000000,,2013-04-26 15:21:00,
2013-04-26 11:23:00,56.0,37.0,-100.00,West,271,2.0,6.0,48,0.00,,,0.00,643.000000,,2013-04-26 15:23:00,
2013-04-26 11:43:00,56.0,37.0,-100.00,West,271,2.0,6.0,48,0.00,,,0.00,643.000000,,2013-04-26 15:43:00,
2013-04-26 11:53:00,56.0,37.0,-100.00,West,271,2.0,6.0,48,0.00,,,0.00,643.000000,,2013-04-26 15:53:00,
2013-04-26 12:03:00,56.0,37.0,-100.00,West,271,2.0,6.0,48,0.00,,,0.00,643.000000,,2013-04-26 16:03:00,
2013-04-26 12:13:00,56.0,37.0,-100.00,West,271,2.0,6.0,48,0.00,,,0.00,643.000000,,2013-04-26 16:13:00,
2013-04-26 12:42:00,56.0,34.0,-100.00,NE,34,2.0,9.0,43,0.00,,,0.00,782.000000,,2013-04-26 16:42:00,
2013-04-26 12:53:00,56.0,34.0,-100.00,NE,34,2.0,9.0,43,0.00,,,0.00,782.000000,,2013-04-26 16:53:00,
2013-04-26 13:02:00,56.0,34.0,-100.00,NE,34,2.0,9.0,43,0.00,,,0.00,782.000000,,2013-04-26 17:02:00,
2013-04-26 13:12:00,56.0,34.0,-100.00,NE,34,2.0,9.0,43,0.00,,,0.00,782.000000,,2013-04-26 17:12:00,
2013-04-26 13:22:00,56.0,34.0,-100.00,NE,34,2.0,9.0,43,0.00,,,0.00,782.000000,,2013-04-26 17:22:00,
2013-04-26 13:42:00,59.0,37.0,-100.00,NNW,334,3.0,8.0,43,0.00,,,0.00,861.000000,,2013-04-26 17:42:00,
2013-04-26 13:52:00,59.0,37.0,-100.00,NNW,334,3.0,8.0,43,0.00,,,0.00,861.000000,,2013-04-26 17:52:00,
2013-04-26 14:02:00,59.0,37.0,-100.00,NNW,334,3.0,8.0,43,0.00,,,0.00,861.000000,,2013-04-26 18:02:00,
2013-04-26 14:12:00,59.0,37.0,-100.00,NNW,334,3.0,8.0,43,0.00,,,0.00,861.000000,,2013-04-26 18:12:00,
2013-04-26 14:22:00,59.0,37.0,-100.00,NNW,334,3.0,8.0,43,0.00,,,0.00,861.000000,,2013-04-26 18:22:00,
2013-04-26 14:42:00,61.0,35.0,-100.00,NW,319,3.0,8.0,38,0.00,,,0.00,808.000000,,2013-04-26 18:42:00,
2013-04-26 14:52:00,61.0,35.0,-100.00,NW,319,3.0,8.0,38,0.00,,,0.00,808.000000,,2013-04-26 18:52:00,
2013-04-26 15:02:00,61.0,35.0,-100.00,NW,319,3.0,8.0,38,0.00,,,0.00,808.000000,,2013-04-26 19:02:00,
2013-04-26 15:12:00,61.0,35.0,-100.00,NW,319,3.0,8.0,38,0.00,,,0.00,808.000000,,2013-04-26 19:12:00,
2013-04-26 15:22:00,61.0,35.0,-100.00,NW,319,3.0,8.0,38,0.00,,,0.00,808.000000,,2013-04-26 19:22:00,
2013-04-26 15:42:00,61.0,35.0,-100.00,NNW,337,3.0,7.0,37,0.00,,,0.00,766.000000,,2013-04-26 19:42:00,
2013-04-26 15:52:00,61.0,35.0,-100.00,NNW,337,3.0,7.0,37,0.00,,,0.00,766.000000,,2013-04-26 19:52:00,
2013-04-26 16:02:00,61.0,35.0,-100.00,NNW,337,3.0,7.0,37,0.00,,,0.00,766.000000,,2013-04-26 20:02:00,
2013-04-26 16:11:00,61.0,35.0,-100.00,NNW,337,3.0,7.0,37,0.00,,,0.00,766.000000,,2013-04-26 20:11:00,
2013-04-26 16:21:00,61.0,35.0,-100.00,NNW,337,3.0,7.0,37,0.00,,,0.00,766.000000,,2013-04-26 20:21:00,
2013-04-26 16:42:00,63.0,33.0,-100.00,East,81,2.0,7.0,32,0.00,,,0.00,648.000000,,2013-04-26 20:42:00,
2013-04-26 16:52:00,63.0,33.0,-100.00,East,81,2.0,7.0,32,0.00,,,0.00,648.000000,,2013-04-26 20:52:00,
2013-04-26 17:02:00,63.0,33.0,-100.00,East,81,2.0,7.0,32,0.00,,,0.00,648.000000,,2013-04-26 21:02:00,
2013-04-26 17:11:00,63.0,33.0,-100.00,East,81,2.0,7.0,32,0.00,,,0.00,648.000000,,2013-04-26 21:11:00,
2013-04-26 17:22:00,63.0,33.0,-100.00,East,81,2.0,7.0,32,0.00,,,0.00,648.000000,,2013-04-26 21:22:00,
2013-04-26 17:23:00,63.0,35.0,-100.00,SE,134,2.0,7.0,35,0.00,,,0.00,422.000000,,2013-04-26 21:23:00,
2013-04-26 17:42:00,63.0,35.0,-100.00,SE,134,2.0,7.0,35,0.00,,,0.00,422.000000,,2013-04-26 21:42:00,
2013-04-26 17:53:00,63.0,35.0,-100.00,SE,134,2.0,7.0,35,0.00,,,0.00,422.000000,,2013-04-26 21:53:00,
2013-04-26 18:03:00,63.0,35.0,-100.00,SE,134,2.0,7.0,35,0.00,,,0.00,422.000000,,2013-04-26 22:03:00,
2013-04-26 18:13:00,63.0,35.0,-100.00,SE,134,2.0,7.0,35,0.00,,,0.00,422.000000,,2013-04-26 22:13:00,
2013-04-26 18:42:00,62.0,30.0,-100.00,East,89,3.0,6.0,30,0.00,,,0.00,350.000000,,2013-04-26 22:42:00,
2013-04-26 18:52:00,62.0,30.0,-100.00,East,89,3.0,6.0,30,0.00,,,0.00,350.000000,,2013-04-26 22:52:00,
2013-04-26 19:02:00,62.0,30.0,-100.00,East,89,3.0,6.0,30,0.00,,,0.00,350.000000,,2013-04-26 23:02:00,
2013-04-26 19:12:00,62.0,30.0,-100.00,East,89,3.0,6.0,30,0.00,,,0.00,350.000000,,2013-04-26 23:12:00,
2013-04-26 19:21:00,62.0,30.0,-100.00,East,89,3.0,6.0,30,0.00,,,0.00,350.000000,,2013-04-26 23:21:00,
2013-04-26 19:42:00,60.0,31.0,-100.00,ENE,60,0.0,5.0,33,0.00,,,0.00,138.000000,,2013-04-26 23:42:00,
2013-04-26 19:52:00,60.0,31.0,-100.00,ENE,60,0.0,5.0,33,0.00,,,0.00,138.000000,,2013-04-26 23:52:00,
2013-04-26 20:01:00,60.0,31.0,-100.00,ENE,60,0.0,5.0,33,0.00,,,0.00,138.000000,,2013-04-27 00:01:00,
2013-04-26 20:11:00,60.0,31.0,-100.00,ENE,60,0.0,5.0,33,0.00,,,0.00,138.000000,,2013-04-27 00:11:00,
2013-04-26 20:21:00,60.0,31.0,-100.00,ENE,60,0.0,5.0,33,0.00,,,0.00,138.000000,,2013-04-27 00:21:00,
2013-04-26 20:42:00,53.0,32.0,-100.00,ESE,108,2.0,2.0,45,0.00,,,0.00,29.000000,,2013-04-27 00:42:00,
2013-04-26 20:52:00,53.0,32.0,-100.00,ESE,108,2.0,2.0,45,0.00,,,0.00,29.000000,,2013-04-27 00:52:00,
2013-04-26 21:01:00,53.0,32.0,-100.00,ESE,108,2.0,2.0,45,0.00,,,0.00,29.000000,,2013-04-27 01:01:00,
2013-04-26 21:12:00,53.0,32.0,-100.00,ESE,108,2.0,2.0,45,0.00,,,0.00,29.000000,,2013-04-27 01:12:00,
2013-04-26 21:21:00,53.0,32.0,-100.00,ESE,108,2.0,2.0,45,0.00,,,0.00,29.000000,,2013-04-27 01:21:00,
2013-04-26 21:42:00,50.0,32.0,-100.00,East,100,0.0,2.0,49,0.00,,,0.00,0.000000,,2013-04-27 01:42:00,
2013-04-26 21:52:00,50.0,32.0,-100.00,East,100,0.0,2.0,49,0.00,,,0.00,0.000000,,2013-04-27 01:52:00,
2013-04-26 22:02:00,50.0,32.0,-100.00,East,100,0.0,2.0,49,0.00,,,0.00,0.000000,,2013-04-27 02:02:00,
2013-04-26 22:11:00,50.0,32.0,-100.00,East,100,0.0,2.0,49,0.00,,,0.00,0.000000,,2013-04-27 02:11:00,
2013-04-26 22:22:00,50.0,32.0,-100.00,East,100,0.0,2.0,49,0.00,,,0.00,0.000000,,2013-04-27 02:22:00,
2013-04-26 22:42:00,47.0,33.0,-100.00,ESE,107,0.0,0.0,58,0.00,,,0.00,0.000000,,2013-04-27 02:42:00,
2013-04-26 22:52:00,47.0,33.0,-100.00,ESE,107,0.0,0.0,58,0.00,,,0.00,0.000000,,2013-04-27 02:52:00,
2013-04-26 23:02:00,47.0,33.0,-100.00,ESE,107,0.0,0.0,58,0.00,,,0.00,0.000000,,2013-04-27 03:02:00,
2013-04-26 23:11:00,47.0,33.0,-100.00,ESE,107,0.0,0.0,58,0.00,,,0.00,0.000000,,2013-04-27 03:11:00,
2013-04-26 23:22:00,47.0,33.0,-100.00,ESE,107,0.0,0.0,58,0.00,,,0.00,0.000000,,2013-04-27 03:22:00,
2013-04-26 23:23:00,44.0,35.0,-100.00,ESE,103,0.0,0.0,71,0.00,,,0.00,0.000000,,2013-04-27 03:23:00,
2013-04-26 23:43:00,44.0,35.0,-100.00,ESE,103,0.0,0.0,71,0.00,,,0.00,0.000000,,2013-04-27 03:43:00,
2013-04-26 23:53:00,44.0,35.0,-100.00,ESE,103,0.0,0.0,71,0.00,,,0.00,0.000000,,2013-04-27 03:53:00,